createdAt,value
2022-09-12T00:02:13.356Z,49.63
2022-09-12T00:04:39.841Z,46.60
2022-09-12T00:07:06.313Z,37.80
2022-09-12T00:09:32.784Z,41.47
2022-09-12T00:11:59.162Z,42.60
2022-09-12T00:14:25.633Z,44.03
2022-09-12T00:16:52.193Z,41.97
2022-09-12T00:19:19.052Z,46.37
2022-09-12T00:21:45.476Z,40.73
2022-09-12T00:24:11.899Z,41.37
2022-09-12T00:26:38.815Z,45.20
2022-09-12T00:29:05.262Z,40.77
2022-09-12T00:31:32.246Z,44.67
2022-09-12T00:34:00.836Z,39.53
2022-09-12T00:36:28.504Z,38.80
2022-09-12T00:38:55.012Z,38.17
2022-09-12T00:41:27.650Z,43.97
2022-09-12T00:44:21.518Z,41.27
2022-09-12T00:46:59.976Z,38.57
2022-09-12T00:49:35.127Z,46.50
2022-09-12T00:52:12.160Z,43.07
2022-09-12T00:54:52.999Z,41.40
2022-09-12T00:57:23.734Z,38.73
2022-09-12T01:00:08.224Z,39.60
2022-09-12T01:02:35.009Z,43.03
2022-09-12T01:05:01.763Z,39.03
2022-09-12T01:07:28.772Z,35.67
2022-09-12T01:09:55.383Z,37.87
2022-09-12T01:12:21.903Z,35.80
2022-09-12T01:14:48.317Z,37.67
2022-09-12T01:17:15.245Z,37.43
2022-09-12T01:20:17.377Z,37.80
2022-09-12T01:23:06.667Z,35.13
2022-09-12T01:25:39.112Z,37.33
2022-09-12T01:28:30.323Z,35.83
2022-09-12T01:31:10.570Z,31.37
2022-09-12T01:34:03.623Z,34.70
2022-09-12T01:36:50.816Z,32.63
2022-09-12T01:39:30.220Z,42.00
2022-09-12T01:42:22.812Z,31.80
2022-09-12T01:44:59.979Z,39.10
2022-09-12T01:47:43.675Z,33.60
2022-09-12T01:50:24.588Z,32.73
2022-09-12T01:52:55.982Z,35.20
2022-09-12T01:55:34.550Z,40.83
2022-09-12T01:58:08.065Z,32.73
2022-09-12T02:00:40.134Z,30.00
2022-09-12T02:03:15.303Z,39.70
2022-09-12T02:06:01.678Z,31.17
2022-09-12T02:08:52.106Z,35.97
2022-09-12T02:11:19.519Z,33.23
2022-09-12T02:14:06.441Z,31.70
2022-09-12T02:16:42.330Z,32.13
2022-09-12T02:19:29.584Z,35.60
2022-09-12T02:22:00.104Z,36.13
2022-09-12T02:24:39.317Z,34.57
2022-09-12T02:27:05.663Z,36.87
2022-09-12T02:29:32.138Z,41.13
2022-09-12T02:32:11.989Z,36.80
2022-09-12T02:34:44.263Z,35.53
2022-09-12T02:37:38.699Z,32.93
2022-09-12T02:40:07.050Z,32.97
2022-09-12T02:42:33.608Z,34.03
2022-09-12T02:45:00.122Z,29.90
2022-09-12T02:47:35.938Z,33.10
2022-09-12T02:50:05.083Z,29.80
2022-09-12T02:52:32.103Z,32.37
2022-09-12T02:54:59.463Z,29.50
2022-09-12T02:57:26.319Z,27.40
2022-09-12T02:59:57.042Z,30.60
2022-09-12T03:02:42.659Z,31.73
2022-09-12T03:05:29.274Z,28.30
2022-09-12T03:08:20.341Z,29.80
2022-09-12T03:11:13.333Z,33.53
2022-09-12T03:14:07.724Z,30.77
2022-09-12T03:17:20.546Z,29.40
2022-09-12T03:20:01.987Z,30.30
2022-09-12T03:22:37.380Z,28.10
2022-09-12T03:25:09.164Z,32.37
2022-09-12T03:27:41.030Z,39.87
2022-09-12T03:30:08.572Z,31.97
2022-09-12T03:32:40.986Z,26.63
2022-09-12T03:35:07.762Z,26.00
2022-09-12T03:37:34.180Z,33.70
2022-09-12T03:40:00.987Z,29.90
2022-09-12T03:42:27.496Z,27.73
2022-09-12T03:44:53.886Z,33.10
2022-09-12T03:47:20.320Z,31.43
2022-09-12T03:49:46.728Z,27.53
2022-09-12T03:52:13.177Z,27.87
2022-09-12T03:54:39.736Z,27.37
2022-09-12T03:57:06.158Z,28.80
2022-09-12T03:59:33.038Z,30.90
2022-09-12T04:01:59.549Z,30.57
2022-09-12T04:04:26.018Z,31.13
2022-09-12T04:06:52.413Z,26.77
2022-09-12T04:09:18.866Z,27.00
2022-09-12T04:11:45.275Z,28.60
2022-09-12T04:14:11.676Z,25.60
2022-09-12T04:16:38.114Z,29.50
2022-09-12T04:19:04.876Z,30.57
2022-09-12T04:21:31.317Z,28.90
2022-09-12T04:23:57.703Z,27.00
2022-09-12T04:26:24.180Z,25.50
2022-09-12T04:28:54.611Z,25.70
2022-09-12T04:31:22.636Z,25.90
2022-09-12T04:34:00.418Z,27.07
2022-09-12T04:36:28.183Z,31.97
2022-09-12T04:38:55.262Z,24.23
2022-09-12T04:41:27.313Z,25.43
2022-09-12T04:44:01.468Z,26.37
2022-09-12T04:46:32.766Z,24.43
2022-09-12T04:48:59.279Z,27.17
2022-09-12T04:51:30.939Z,24.07
2022-09-12T04:54:00.448Z,23.40
2022-09-12T04:56:28.764Z,24.50
2022-09-12T04:58:58.436Z,25.40
2022-09-12T05:01:25.374Z,26.37
2022-09-12T05:03:52.016Z,23.50
2022-09-12T05:06:21.439Z,26.03
2022-09-12T05:08:48.528Z,29.77
2022-09-12T05:11:22.720Z,23.00
2022-09-12T05:13:51.782Z,25.53
2022-09-12T05:16:19.064Z,23.90
2022-09-12T05:18:47.161Z,22.00
2022-09-12T05:21:16.586Z,23.30
2022-09-12T05:23:43.480Z,24.87
2022-09-12T05:26:15.183Z,24.93
2022-09-12T05:28:42.593Z,21.63
2022-09-12T05:31:12.554Z,22.00
2022-09-12T05:33:41.029Z,23.97
2022-09-12T05:36:11.248Z,27.83
2022-09-12T05:38:37.882Z,24.67
2022-09-12T05:41:14.639Z,24.70
2022-09-12T05:43:43.855Z,23.27
2022-09-12T05:46:14.401Z,24.03
2022-09-12T05:48:43.013Z,20.93
2022-09-12T05:51:15.080Z,23.70
2022-09-12T05:53:41.689Z,27.00
2022-09-12T05:56:09.540Z,27.10
2022-09-12T05:58:37.674Z,25.63
2022-09-12T06:01:08.562Z,28.40
2022-09-12T06:03:37.199Z,24.67
2022-09-12T06:06:07.207Z,23.93
2022-09-12T06:08:34.830Z,21.20
2022-09-12T06:11:03.614Z,26.90
2022-09-12T06:13:36.885Z,24.30
2022-09-12T06:16:18.296Z,24.73
2022-09-12T06:18:49.520Z,25.60
2022-09-12T06:21:16.297Z,24.83
2022-09-12T06:23:43.227Z,24.23
2022-09-12T06:26:10.753Z,22.67
2022-09-12T06:28:39.323Z,27.33
2022-09-12T06:31:14.921Z,23.57
2022-09-12T06:33:43.707Z,26.10
2022-09-12T06:36:13.111Z,27.23
2022-09-12T06:38:40.830Z,23.93
2022-09-12T06:41:10.150Z,23.63
2022-09-12T06:43:37.063Z,26.07
2022-09-12T06:46:04.308Z,29.77
2022-09-12T06:48:30.865Z,23.43
2022-09-12T06:51:10.235Z,25.93
2022-09-12T06:53:37.585Z,23.10
2022-09-12T06:56:07.115Z,25.63
2022-09-12T06:58:35.031Z,24.07
2022-09-12T07:01:06.030Z,23.73
2022-09-12T07:03:32.726Z,24.27
2022-09-12T07:06:04.274Z,26.17
2022-09-12T07:08:31.624Z,22.33
2022-09-12T07:10:59.668Z,26.00
2022-09-12T07:13:26.513Z,23.07
2022-09-12T07:15:52.953Z,22.33
2022-09-12T07:18:19.451Z,23.03
2022-09-12T07:20:45.872Z,28.27
2022-09-12T07:23:12.331Z,23.63
2022-09-12T07:25:38.746Z,24.93
2022-09-12T07:28:05.131Z,26.20
2022-09-12T07:30:31.566Z,24.07
2022-09-12T07:32:58.021Z,22.10
2022-09-12T07:35:24.457Z,24.77
2022-09-12T07:37:50.874Z,28.17
2022-09-12T07:40:17.347Z,28.30
2022-09-12T07:42:43.887Z,27.00
2022-09-12T07:45:11.236Z,24.03
2022-09-12T07:47:37.677Z,25.53
2022-09-12T07:50:04.337Z,26.30
2022-09-12T07:52:31.237Z,22.20
2022-09-12T07:54:57.639Z,25.33
2022-09-12T07:57:25.031Z,21.93
2022-09-12T07:59:53.137Z,23.20
2022-09-12T08:02:20.320Z,23.80
2022-09-12T08:04:48.145Z,26.23
2022-09-12T08:07:14.855Z,24.80
2022-09-12T08:09:41.289Z,20.77
2022-09-12T08:12:07.903Z,23.67
2022-09-12T08:14:34.310Z,24.93
2022-09-12T08:17:00.904Z,29.50
2022-09-12T08:19:27.328Z,25.67
2022-09-12T08:21:53.732Z,22.23
2022-09-12T08:24:20.177Z,30.50
2022-09-12T08:26:46.773Z,24.97
2022-09-12T08:29:13.252Z,23.87
2022-09-12T08:31:41.295Z,27.47
2022-09-12T08:34:08.169Z,23.47
2022-09-12T08:36:35.243Z,24.20
2022-09-12T08:39:04.911Z,28.40
2022-09-12T08:41:45.749Z,26.50
2022-09-12T08:44:36.116Z,25.63
2022-09-12T08:47:14.677Z,24.23
2022-09-12T08:50:12.670Z,24.30
2022-09-12T08:52:43.953Z,20.97
2022-09-12T08:55:45.151Z,21.67
2022-09-12T08:58:17.820Z,24.07
2022-09-12T09:00:59.425Z,24.87
2022-09-12T09:03:45.154Z,20.50
2022-09-12T09:06:30.384Z,21.17
2022-09-12T09:09:11.930Z,22.43
2022-09-12T09:11:50.999Z,19.00
2022-09-12T09:14:42.230Z,22.43
2022-09-12T09:17:18.151Z,22.67
2022-09-12T09:19:51.009Z,16.43
2022-09-12T09:22:33.190Z,16.63
2022-09-12T09:25:04.543Z,16.90
2022-09-12T09:27:41.774Z,19.60
2022-09-12T09:30:17.926Z,19.27
2022-09-12T09:32:49.592Z,16.53
2022-09-12T09:35:44.146Z,18.53
2022-09-12T09:38:24.927Z,20.53
2022-09-12T09:40:56.457Z,18.27
2022-09-12T09:43:28.873Z,18.60
2022-09-12T09:45:57.795Z,16.70
2022-09-12T09:48:35.853Z,16.37
2022-09-12T09:51:05.357Z,17.70
2022-09-12T09:54:01.147Z,21.43
2022-09-12T09:56:29.349Z,23.90
2022-09-12T09:58:56.116Z,16.17
2022-09-12T10:01:24.577Z,15.60
2022-09-12T10:03:53.737Z,15.30
2022-09-12T10:06:20.966Z,14.97
2022-09-12T10:08:49.505Z,18.70
2022-09-12T10:11:15.868Z,19.23
2022-09-12T10:13:53.193Z,17.20
2022-09-12T10:16:24.024Z,15.60
2022-09-12T10:18:52.600Z,15.10
2022-09-12T10:21:29.475Z,13.77
2022-09-12T10:24:06.561Z,14.33
2022-09-12T10:26:37.620Z,16.33
2022-09-12T10:29:26.099Z,11.43
2022-09-12T10:32:01.242Z,16.77
2022-09-12T10:34:28.053Z,13.50
2022-09-12T10:37:00.732Z,12.43
2022-09-12T10:39:27.664Z,12.03
2022-09-12T10:41:54.250Z,14.23
2022-09-12T10:44:32.818Z,13.20
2022-09-12T10:47:19.366Z,16.10
2022-09-12T10:49:45.890Z,12.27
2022-09-12T10:52:23.583Z,12.90
2022-09-12T10:54:51.328Z,14.83
2022-09-12T10:57:32.622Z,10.90
2022-09-12T11:00:07.877Z,12.00
2022-09-12T11:02:43.081Z,18.10
2022-09-12T11:05:22.473Z,14.90
2022-09-12T11:07:59.090Z,13.50
2022-09-12T11:10:47.025Z,11.50
2022-09-12T11:13:44.600Z,12.50
2022-09-12T11:16:22.900Z,11.17
2022-09-12T11:19:14.220Z,12.50
2022-09-12T11:22:14.736Z,12.27
2022-09-12T11:24:59.818Z,12.60
2022-09-12T11:27:46.191Z,11.07
2022-09-12T11:30:17.268Z,11.60
2022-09-12T11:33:22.096Z,11.23
2022-09-12T11:35:55.439Z,11.80
2022-09-12T11:39:03.918Z,15.63
2022-09-12T11:41:34.753Z,10.50
2022-09-12T11:44:30.591Z,10.60
2022-09-12T11:46:57.636Z,13.20
2022-09-12T11:49:41.597Z,10.60
2022-09-12T11:52:14.568Z,15.07
2022-09-12T11:54:44.727Z,12.50
2022-09-12T11:57:33.739Z,14.20
2022-09-12T12:00:10.073Z,12.77
2022-09-12T12:02:48.219Z,11.77
2022-09-12T12:05:36.572Z,12.70
2022-09-12T12:08:06.396Z,10.10
2022-09-12T12:10:39.338Z,11.97
2022-09-12T12:13:23.018Z,10.10
2022-09-12T12:15:56.501Z,11.30
2022-09-12T12:18:26.235Z,10.90
2022-09-12T12:20:54.380Z,11.83
2022-09-12T12:23:33.613Z,15.90
2022-09-12T12:26:02.421Z,11.53
2022-09-12T12:28:41.154Z,11.37
2022-09-12T12:31:09.867Z,10.80
2022-09-12T12:33:39.472Z,9.97
2022-09-12T12:36:09.860Z,10.60
2022-09-12T12:38:38.996Z,13.07
2022-09-12T12:41:17.672Z,12.73
2022-09-12T12:43:46.089Z,12.60
2022-09-12T12:46:17.143Z,12.60
2022-09-12T12:49:05.399Z,11.10
2022-09-12T12:51:56.571Z,12.77
2022-09-12T12:54:41.216Z,11.10
2022-09-12T12:57:30.820Z,10.63
2022-09-12T13:00:06.918Z,11.53
2022-09-12T13:02:38.486Z,14.13
2022-09-12T13:05:16.637Z,10.33
2022-09-12T13:07:44.361Z,11.80
2022-09-12T13:10:23.952Z,15.30
2022-09-12T13:12:51.853Z,14.23
2022-09-12T13:15:36.713Z,11.10
2022-09-12T13:18:12.228Z,10.40
2022-09-12T13:20:49.743Z,13.17
2022-09-12T13:23:28.119Z,9.90
2022-09-12T13:25:57.637Z,9.93
2022-09-12T13:28:26.347Z,12.53
2022-09-12T13:31:06.495Z,10.80
2022-09-12T13:33:53.967Z,13.70
2022-09-12T13:37:11.287Z,9.90
2022-09-12T13:39:59.620Z,12.73
2022-09-12T13:42:40.629Z,14.27
2022-09-12T13:45:20.866Z,12.23
2022-09-12T13:47:50.493Z,10.80
2022-09-12T13:50:21.151Z,10.27
2022-09-12T13:52:54.901Z,13.30
2022-09-12T13:55:30.285Z,13.93
2022-09-12T13:58:03.136Z,11.30
2022-09-12T14:00:32.272Z,10.27
2022-09-12T14:03:18.124Z,10.53
2022-09-12T14:05:48.010Z,9.80
2022-09-12T14:08:15.244Z,9.47
2022-09-12T14:10:45.174Z,9.97
2022-09-12T14:13:16.496Z,10.67
2022-09-12T14:15:49.724Z,12.97
2022-09-12T14:18:36.189Z,10.80
2022-09-12T14:21:10.511Z,9.83
2022-09-12T14:23:42.550Z,9.17
2022-09-12T14:26:12.644Z,14.30
2022-09-12T14:28:41.752Z,8.97
2022-09-12T14:31:25.062Z,9.10
2022-09-12T14:33:53.891Z,11.80
2022-09-12T14:36:40.996Z,9.97
2022-09-12T14:39:19.817Z,9.53
2022-09-12T14:41:46.564Z,9.33
2022-09-12T14:44:40.811Z,11.67
2022-09-12T14:47:20.799Z,8.63
2022-09-12T14:49:51.570Z,10.50
2022-09-12T14:52:28.796Z,10.50
2022-09-12T14:55:21.587Z,10.93
2022-09-12T14:57:50.170Z,11.23
2022-09-12T15:00:21.102Z,11.30
2022-09-12T15:02:50.134Z,10.27
2022-09-12T15:05:20.243Z,12.20
2022-09-12T15:07:59.979Z,9.67
2022-09-12T15:10:27.738Z,11.40
2022-09-12T15:13:04.699Z,11.50
2022-09-12T15:15:32.063Z,10.47
2022-09-12T15:18:01.368Z,12.40
2022-09-12T15:20:29.983Z,10.97
2022-09-12T15:22:56.857Z,10.00
2022-09-12T15:25:23.264Z,11.10
2022-09-12T15:27:53.460Z,11.83
2022-09-12T15:30:19.881Z,12.57
2022-09-12T15:32:46.288Z,13.00
2022-09-12T15:35:18.179Z,10.60
2022-09-12T15:37:44.804Z,10.47
2022-09-12T15:40:13.030Z,16.30
2022-09-12T15:42:39.916Z,11.60
2022-09-12T15:45:18.549Z,11.07
2022-09-12T15:47:44.988Z,13.67
2022-09-12T15:50:11.629Z,11.97
2022-09-12T15:52:38.061Z,16.33
2022-09-12T15:55:05.862Z,10.90
2022-09-12T15:57:32.301Z,13.03
2022-09-12T15:59:58.726Z,11.60
2022-09-12T16:02:25.255Z,11.20
2022-09-12T16:04:54.612Z,15.90
2022-09-12T16:07:21.599Z,15.00
2022-09-12T16:09:48.436Z,12.93
2022-09-12T16:12:14.817Z,11.87
2022-09-12T16:14:41.182Z,17.77
2022-09-12T16:17:08.050Z,12.57
2022-09-12T16:19:34.512Z,12.50
2022-09-12T16:22:00.937Z,11.70
2022-09-12T16:24:27.451Z,10.77
2022-09-12T16:26:55.915Z,10.70
2022-09-12T16:29:25.890Z,11.10
2022-09-12T16:31:52.304Z,10.83
2022-09-12T16:34:18.721Z,9.90
2022-09-12T16:36:45.262Z,16.00
2022-09-12T16:39:11.650Z,9.53
2022-09-12T16:41:38.162Z,12.00
2022-09-12T16:44:04.574Z,9.47
2022-09-12T16:46:31.062Z,10.17
2022-09-12T16:48:58.878Z,10.83
2022-09-12T16:51:30.806Z,10.00
2022-09-12T16:53:57.445Z,9.17
2022-09-12T16:56:25.390Z,9.67
2022-09-12T16:58:52.808Z,9.03
2022-09-12T17:01:24.924Z,10.73
2022-09-12T17:03:56.510Z,12.80
2022-09-12T17:06:25.056Z,10.37
2022-09-12T17:08:53.114Z,10.60
2022-09-12T17:11:34.083Z,14.43
2022-09-12T17:14:05.849Z,9.93
2022-09-12T17:16:47.982Z,9.17
2022-09-12T17:19:21.183Z,10.03
2022-09-12T17:21:48.780Z,11.37
2022-09-12T17:24:16.652Z,9.90
2022-09-12T17:26:43.397Z,13.03
2022-09-12T17:29:12.677Z,10.70
2022-09-12T17:31:39.390Z,14.90
2022-09-12T17:34:05.857Z,10.33
2022-09-12T17:36:32.581Z,11.77
2022-09-12T17:38:59.540Z,12.00
2022-09-12T17:41:28.161Z,11.10
2022-09-12T17:43:57.148Z,16.73
2022-09-12T17:46:26.281Z,11.23
2022-09-12T17:48:54.624Z,10.70
2022-09-12T17:51:22.830Z,12.43
2022-09-12T17:53:49.355Z,12.57
2022-09-12T17:56:15.951Z,13.50
2022-09-12T17:58:42.457Z,10.80
2022-09-12T18:01:33.539Z,14.73
2022-09-12T18:04:01.719Z,14.07
2022-09-12T18:06:30.091Z,13.10
2022-09-12T18:09:05.908Z,11.40
2022-09-12T18:11:33.348Z,14.20
2022-09-12T18:14:00.607Z,13.93
2022-09-12T18:16:31.579Z,12.87
2022-09-12T18:19:02.197Z,16.43
2022-09-12T18:21:29.177Z,11.90
2022-09-12T18:23:59.923Z,11.63
2022-09-12T18:26:28.068Z,13.90
2022-09-12T18:28:55.012Z,13.10
2022-09-12T18:31:24.396Z,11.63
2022-09-12T18:33:51.433Z,15.83
2022-09-12T18:36:19.726Z,17.17
2022-09-12T18:38:47.895Z,9.97
2022-09-12T18:41:23.019Z,12.17
2022-09-12T18:44:01.376Z,16.93
2022-09-12T18:46:30.419Z,10.43
2022-09-12T18:48:58.465Z,11.43
2022-09-12T18:51:34.204Z,12.70
2022-09-12T18:54:03.899Z,13.70
2022-09-12T18:56:35.213Z,12.90
2022-09-12T18:59:03.661Z,12.10
2022-09-12T19:01:32.899Z,14.10
2022-09-12T19:04:01.206Z,12.60
2022-09-12T19:06:30.186Z,12.63
2022-09-12T19:08:57.917Z,13.97
2022-09-12T19:11:26.044Z,10.83
2022-09-12T19:13:54.031Z,13.10
2022-09-12T19:16:25.559Z,11.97
2022-09-12T19:18:52.582Z,13.30
2022-09-12T19:21:24.949Z,11.47
2022-09-12T19:23:52.455Z,10.93
2022-09-12T19:26:20.558Z,11.30
2022-09-12T19:28:47.607Z,17.00
2022-09-12T19:31:18.942Z,13.33
2022-09-12T19:33:46.268Z,20.20
2022-09-12T19:36:33.989Z,16.43
2022-09-12T19:39:01.715Z,12.40
2022-09-12T19:41:28.564Z,12.33
2022-09-12T19:43:56.170Z,21.27
2022-09-12T19:46:24.265Z,13.50
2022-09-12T19:48:52.489Z,13.23
2022-09-12T19:51:20.335Z,11.67
2022-09-12T19:53:47.269Z,14.17
2022-09-12T19:56:14.632Z,15.43
2022-09-12T19:58:43.454Z,16.83
2022-09-12T20:01:16.735Z,11.53
2022-09-12T20:03:44.273Z,13.00
2022-09-12T20:06:16.269Z,12.70
2022-09-12T20:08:43.972Z,13.20
2022-09-12T20:11:13.027Z,12.77
2022-09-12T20:13:39.784Z,12.40
2022-09-12T20:16:21.841Z,15.43
2022-09-12T20:18:53.649Z,10.33
2022-09-12T20:21:23.349Z,13.90
2022-09-12T20:23:49.765Z,14.33
2022-09-12T20:26:16.206Z,11.40
2022-09-12T20:28:42.844Z,15.87
2022-09-12T20:31:15.096Z,11.20
2022-09-12T20:33:41.970Z,11.43
2022-09-12T20:36:11.749Z,13.57
2022-09-12T20:38:38.634Z,14.27
2022-09-12T20:41:07.528Z,13.20
2022-09-12T20:43:33.969Z,14.93
2022-09-12T20:46:05.192Z,17.47
2022-09-12T20:48:32.009Z,13.27
2022-09-12T20:51:01.985Z,14.50
2022-09-12T20:53:32.853Z,11.50
2022-09-12T20:56:01.387Z,11.30
2022-09-12T20:58:27.786Z,13.10
2022-09-12T21:00:54.210Z,15.07
2022-09-12T21:03:20.680Z,14.43
2022-09-12T21:05:47.113Z,15.57
2022-09-12T21:08:14.420Z,17.53
2022-09-12T21:10:42.050Z,13.80
2022-09-12T21:13:12.720Z,16.47
2022-09-12T21:15:40.303Z,11.50
2022-09-12T21:18:06.843Z,11.10
2022-09-12T21:20:33.581Z,11.67
2022-09-12T21:23:00.397Z,11.87
2022-09-12T21:25:28.911Z,11.20
2022-09-12T21:27:55.430Z,12.53
2022-09-12T21:30:22.339Z,10.67
2022-09-12T21:32:48.895Z,10.57
2022-09-12T21:35:15.418Z,10.73
2022-09-12T21:37:41.800Z,11.23
2022-09-12T21:40:08.505Z,9.83
2022-09-12T21:42:34.989Z,10.50
2022-09-12T21:45:01.408Z,11.33
2022-09-12T21:47:27.798Z,10.80
2022-09-12T21:49:55.249Z,12.73
2022-09-12T21:52:21.975Z,11.13
2022-09-12T21:54:48.386Z,13.73
2022-09-12T21:57:14.815Z,10.23
2022-09-12T21:59:41.418Z,11.87
2022-09-12T22:02:08.687Z,10.43
2022-09-12T22:04:35.156Z,18.63
2022-09-12T22:07:02.099Z,11.70
2022-09-12T22:09:28.507Z,11.20
2022-09-12T22:11:55.470Z,10.77
2022-09-12T22:14:21.899Z,11.67
2022-09-12T22:16:49.381Z,12.67
2022-09-12T22:19:15.818Z,15.30
2022-09-12T22:22:02.188Z,10.27
2022-09-12T22:24:29.380Z,10.40
2022-09-12T22:26:57.645Z,10.73
2022-09-12T22:29:24.020Z,18.70
2022-09-12T22:31:50.516Z,11.77
2022-09-12T22:34:16.962Z,11.00
2022-09-12T22:36:44.142Z,14.33
2022-09-12T22:39:10.653Z,13.20
2022-09-12T22:41:37.107Z,13.80
2022-09-12T22:44:03.536Z,16.17
2022-09-12T22:46:30.498Z,14.57
2022-09-12T22:48:57.021Z,14.40
2022-09-12T22:51:24.058Z,15.23
2022-09-12T22:53:51.394Z,15.03
2022-09-12T22:56:18.575Z,16.77
2022-09-12T22:58:44.996Z,14.10
2022-09-12T23:01:11.606Z,13.83
2022-09-12T23:03:38.294Z,21.50
2022-09-12T23:06:05.999Z,15.13
2022-09-12T23:08:34.574Z,16.33
2022-09-12T23:11:15.475Z,13.70
2022-09-12T23:13:44.264Z,13.57
2022-09-12T23:16:16.150Z,12.40
2022-09-12T23:18:42.672Z,16.10
2022-09-12T23:21:10.936Z,15.87
2022-09-12T23:23:38.203Z,20.10
2022-09-12T23:26:12.392Z,12.60
2022-09-12T23:28:40.362Z,13.33
2022-09-12T23:31:09.419Z,12.90
2022-09-12T23:33:36.564Z,18.13
2022-09-12T23:36:06.304Z,14.20
2022-09-12T23:38:34.669Z,11.20
2022-09-12T23:41:03.210Z,12.70
2022-09-12T23:43:30.489Z,10.83
2022-09-12T23:45:57.795Z,13.40
2022-09-12T23:48:24.344Z,12.83
2022-09-12T23:50:51.722Z,12.47
2022-09-12T23:53:18.815Z,13.63
2022-09-12T23:55:45.239Z,11.60
2022-09-12T23:58:11.988Z,13.00
